sensor_id;sensor_type;location;lat;lon;timestamp;P1;durP1;ratioP1;P2;durP2;ratioP2
17614;SDS011;8926;49.720;6.576;2023-08-24T00:01:02;2.07;;;1.97;;
17614;SDS011;8926;49.720;6.576;2023-08-24T00:03:27;1.47;;;1.47;;
17614;SDS011;8926;49.720;6.576;2023-08-24T00:05:53;1.53;;;1.50;;
17614;SDS011;8926;49.720;6.576;2023-08-24T00:08:18;2.23;;;2.03;;
17614;SDS011;8926;49.720;6.576;2023-08-24T00:10:48;3.43;;;2.10;;
17614;SDS011;8926;49.720;6.576;2023-08-24T00:13:14;1.47;;;1.37;;
17614;SDS011;8926;49.720;6.576;2023-08-24T00:15:39;1.83;;;1.73;;
17614;SDS011;8926;49.720;6.576;2023-08-24T00:18:05;1.60;;;1.50;;
17614;SDS011;8926;49.720;6.576;2023-08-24T00:20:31;1.70;;;1.60;;
17614;SDS011;8926;49.720;6.576;2023-08-24T00:23:00;2.43;;;2.00;;
17614;SDS011;8926;49.720;6.576;2023-08-24T00:25:25;2.47;;;2.10;;
17614;SDS011;8926;49.720;6.576;2023-08-24T00:27:54;2.20;;;2.10;;
17614;SDS011;8926;49.720;6.576;2023-08-24T00:30:20;2.20;;;2.10;;
17614;SDS011;8926;49.720;6.576;2023-08-24T00:32:45;2.23;;;2.03;;
17614;SDS011;8926;49.720;6.576;2023-08-24T00:35:10;1.93;;;1.83;;
17614;SDS011;8926;49.720;6.576;2023-08-24T00:37:36;1.93;;;1.83;;
17614;SDS011;8926;49.720;6.576;2023-08-24T00:40:03;1.93;;;1.83;;
17614;SDS011;8926;49.720;6.576;2023-08-24T00:42:33;1.80;;;1.70;;
17614;SDS011;8926;49.720;6.576;2023-08-24T00:45:02;2.13;;;2.03;;
17614;SDS011;8926;49.720;6.576;2023-08-24T00:47:28;2.00;;;1.90;;
17614;SDS011;8926;49.720;6.576;2023-08-24T00:49:54;1.87;;;1.77;;
17614;SDS011;8926;49.720;6.576;2023-08-24T00:52:20;1.90;;;1.80;;
17614;SDS011;8926;49.720;6.576;2023-08-24T00:54:45;2.00;;;1.90;;
17614;SDS011;8926;49.720;6.576;2023-08-24T00:57:11;1.90;;;1.80;;
17614;SDS011;8926;49.720;6.576;2023-08-24T00:59:37;1.87;;;1.77;;
17614;SDS011;8926;49.720;6.576;2023-08-24T01:02:03;2.20;;;1.90;;
17614;SDS011;8926;49.720;6.576;2023-08-24T01:04:28;1.93;;;1.83;;
17614;SDS011;8926;49.720;6.576;2023-08-24T01:06:53;1.80;;;1.70;;
17614;SDS011;8926;49.720;6.576;2023-08-24T01:09:19;1.97;;;1.87;;
17614;SDS011;8926;49.720;6.576;2023-08-24T01:12:06;2.13;;;1.93;;
17614;SDS011;8926;49.720;6.576;2023-08-24T01:14:44;4.50;;;2.13;;
17614;SDS011;8926;49.720;6.576;2023-08-24T01:17:12;2.30;;;2.20;;
17614;SDS011;8926;49.720;6.576;2023-08-24T01:19:41;2.13;;;2.00;;
17614;SDS011;8926;49.720;6.576;2023-08-24T01:22:15;2.10;;;2.00;;
17614;SDS011;8926;49.720;6.576;2023-08-24T01:27:35;2.07;;;1.87;;
17614;SDS011;8926;49.720;6.576;2023-08-24T01:30:02;1.80;;;1.70;;
17614;SDS011;8926;49.720;6.576;2023-08-24T01:32:32;1.63;;;1.53;;
17614;SDS011;8926;49.720;6.576;2023-08-24T01:34:58;2.10;;;2.00;;
17614;SDS011;8926;49.720;6.576;2023-08-24T01:37:24;2.57;;;2.30;;
17614;SDS011;8926;49.720;6.576;2023-08-24T01:42:47;2.00;;;1.90;;
17614;SDS011;8926;49.720;6.576;2023-08-24T01:45:16;2.63;;;1.70;;
17614;SDS011;8926;49.720;6.576;2023-08-24T01:47:44;1.77;;;1.67;;
17614;SDS011;8926;49.720;6.576;2023-08-24T01:50:12;1.90;;;1.80;;
17614;SDS011;8926;49.720;6.576;2023-08-24T01:52:38;1.87;;;1.77;;
17614;SDS011;8926;49.720;6.576;2023-08-24T01:55:04;1.90;;;1.80;;
17614;SDS011;8926;49.720;6.576;2023-08-24T01:57:30;1.90;;;1.77;;
17614;SDS011;8926;49.720;6.576;2023-08-24T01:59:55;1.80;;;1.70;;
17614;SDS011;8926;49.720;6.576;2023-08-24T02:02:20;1.97;;;1.80;;
17614;SDS011;8926;49.720;6.576;2023-08-24T02:04:46;1.67;;;1.57;;
17614;SDS011;8926;49.720;6.576;2023-08-24T02:07:11;1.70;;;1.60;;
17614;SDS011;8926;49.720;6.576;2023-08-24T02:09:37;1.67;;;1.57;;
17614;SDS011;8926;49.720;6.576;2023-08-24T02:12:02;2.23;;;2.13;;
17614;SDS011;8926;49.720;6.576;2023-08-24T02:14:27;2.10;;;2.00;;
17614;SDS011;8926;49.720;6.576;2023-08-24T02:16:53;1.90;;;1.80;;
17614;SDS011;8926;49.720;6.576;2023-08-24T02:19:19;2.00;;;1.90;;
17614;SDS011;8926;49.720;6.576;2023-08-24T02:21:44;2.27;;;2.17;;
17614;SDS011;8926;49.720;6.576;2023-08-24T02:24:09;1.93;;;1.83;;
17614;SDS011;8926;49.720;6.576;2023-08-24T02:26:35;1.90;;;1.80;;
17614;SDS011;8926;49.720;6.576;2023-08-24T02:29:00;1.63;;;1.53;;
17614;SDS011;8926;49.720;6.576;2023-08-24T02:31:25;1.83;;;1.73;;
17614;SDS011;8926;49.720;6.576;2023-08-24T02:33:51;1.93;;;1.83;;
17614;SDS011;8926;49.720;6.576;2023-08-24T02:36:17;2.77;;;2.57;;
17614;SDS011;8926;49.720;6.576;2023-08-24T02:38:42;2.13;;;1.90;;
17614;SDS011;8926;49.720;6.576;2023-08-24T02:41:07;2.00;;;1.90;;
17614;SDS011;8926;49.720;6.576;2023-08-24T02:43:34;2.07;;;1.97;;
17614;SDS011;8926;49.720;6.576;2023-08-24T02:46:02;1.70;;;1.60;;
17614;SDS011;8926;49.720;6.576;2023-08-24T02:48:29;2.30;;;2.20;;
17614;SDS011;8926;49.720;6.576;2023-08-24T02:50:56;2.17;;;2.07;;
17614;SDS011;8926;49.720;6.576;2023-08-24T02:53:22;2.27;;;2.17;;
17614;SDS011;8926;49.720;6.576;2023-08-24T02:55:47;2.00;;;1.90;;
17614;SDS011;8926;49.720;6.576;2023-08-24T02:58:13;2.07;;;1.90;;
17614;SDS011;8926;49.720;6.576;2023-08-24T03:00:38;2.10;;;2.00;;
17614;SDS011;8926;49.720;6.576;2023-08-24T03:03:03;1.90;;;1.80;;
17614;SDS011;8926;49.720;6.576;2023-08-24T03:05:31;2.03;;;1.93;;
17614;SDS011;8926;49.720;6.576;2023-08-24T03:07:57;1.60;;;1.50;;
17614;SDS011;8926;49.720;6.576;2023-08-24T03:10:22;2.20;;;2.10;;
17614;SDS011;8926;49.720;6.576;2023-08-24T03:12:48;1.90;;;1.80;;
17614;SDS011;8926;49.720;6.576;2023-08-24T03:15:13;1.60;;;1.50;;
17614;SDS011;8926;49.720;6.576;2023-08-24T03:17:38;1.73;;;1.63;;
17614;SDS011;8926;49.720;6.576;2023-08-24T03:20:04;1.90;;;1.80;;
17614;SDS011;8926;49.720;6.576;2023-08-24T03:22:30;2.10;;;2.00;;
17614;SDS011;8926;49.720;6.576;2023-08-24T03:24:55;1.60;;;1.50;;
17614;SDS011;8926;49.720;6.576;2023-08-24T03:27:20;1.73;;;1.63;;
17614;SDS011;8926;49.720;6.576;2023-08-24T03:29:46;2.10;;;2.00;;
17614;SDS011;8926;49.720;6.576;2023-08-24T03:32:11;1.70;;;1.60;;
17614;SDS011;8926;49.720;6.576;2023-08-24T03:34:36;1.90;;;1.80;;
17614;SDS011;8926;49.720;6.576;2023-08-24T03:37:02;2.03;;;1.93;;
17614;SDS011;8926;49.720;6.576;2023-08-24T03:39:27;1.63;;;1.53;;
17614;SDS011;8926;49.720;6.576;2023-08-24T03:41:52;1.60;;;1.50;;
17614;SDS011;8926;49.720;6.576;2023-08-24T03:44:18;1.80;;;1.70;;
17614;SDS011;8926;49.720;6.576;2023-08-24T03:46:43;1.83;;;1.73;;
17614;SDS011;8926;49.720;6.576;2023-08-24T03:49:08;2.03;;;1.93;;
17614;SDS011;8926;49.720;6.576;2023-08-24T03:51:34;2.20;;;2.10;;
17614;SDS011;8926;49.720;6.576;2023-08-24T03:53:59;1.90;;;1.80;;
17614;SDS011;8926;49.720;6.576;2023-08-24T03:56:24;1.73;;;1.63;;
17614;SDS011;8926;49.720;6.576;2023-08-24T03:58:50;2.10;;;1.97;;
17614;SDS011;8926;49.720;6.576;2023-08-24T04:01:15;2.50;;;2.30;;
17614;SDS011;8926;49.720;6.576;2023-08-24T04:03:40;1.93;;;1.83;;
17614;SDS011;8926;49.720;6.576;2023-08-24T04:06:06;2.00;;;1.90;;
17614;SDS011;8926;49.720;6.576;2023-08-24T04:08:31;1.80;;;1.70;;
17614;SDS011;8926;49.720;6.576;2023-08-24T04:10:56;2.30;;;2.10;;
17614;SDS011;8926;49.720;6.576;2023-08-24T04:13:22;2.87;;;2.67;;
17614;SDS011;8926;49.720;6.576;2023-08-24T04:15:47;2.30;;;2.10;;
17614;SDS011;8926;49.720;6.576;2023-08-24T04:18:12;2.40;;;2.30;;
17614;SDS011;8926;49.720;6.576;2023-08-24T04:20:38;2.07;;;1.97;;
17614;SDS011;8926;49.720;6.576;2023-08-24T04:23:03;2.03;;;1.93;;
17614;SDS011;8926;49.720;6.576;2023-08-24T04:25:28;2.27;;;1.90;;
17614;SDS011;8926;49.720;6.576;2023-08-24T04:27:55;1.70;;;1.60;;
17614;SDS011;8926;49.720;6.576;2023-08-24T04:30:20;1.90;;;1.80;;
17614;SDS011;8926;49.720;6.576;2023-08-24T04:32:46;1.90;;;1.80;;
17614;SDS011;8926;49.720;6.576;2023-08-24T04:35:12;2.07;;;1.87;;
17614;SDS011;8926;49.720;6.576;2023-08-24T04:37:37;2.10;;;2.00;;
17614;SDS011;8926;49.720;6.576;2023-08-24T04:40:03;2.53;;;1.80;;
17614;SDS011;8926;49.720;6.576;2023-08-24T04:42:29;2.20;;;2.00;;
17614;SDS011;8926;49.720;6.576;2023-08-24T04:44:55;1.93;;;1.83;;
17614;SDS011;8926;49.720;6.576;2023-08-24T04:47:20;2.50;;;2.30;;
17614;SDS011;8926;49.720;6.576;2023-08-24T04:49:45;2.73;;;2.53;;
17614;SDS011;8926;49.720;6.576;2023-08-24T04:52:11;2.87;;;2.77;;
17614;SDS011;8926;49.720;6.576;2023-08-24T04:54:36;2.50;;;2.40;;
17614;SDS011;8926;49.720;6.576;2023-08-24T04:57:01;3.27;;;3.00;;
17614;SDS011;8926;49.720;6.576;2023-08-24T04:59:27;2.73;;;2.50;;
17614;SDS011;8926;49.720;6.576;2023-08-24T05:01:52;2.30;;;2.20;;
17614;SDS011;8926;49.720;6.576;2023-08-24T05:04:17;2.23;;;2.13;;
17614;SDS011;8926;49.720;6.576;2023-08-24T05:06:43;2.23;;;2.13;;
17614;SDS011;8926;49.720;6.576;2023-08-24T05:09:08;2.03;;;1.93;;
17614;SDS011;8926;49.720;6.576;2023-08-24T05:11:33;2.60;;;2.40;;
17614;SDS011;8926;49.720;6.576;2023-08-24T05:13:59;2.60;;;2.03;;
17614;SDS011;8926;49.720;6.576;2023-08-24T05:16:24;2.23;;;2.03;;
17614;SDS011;8926;49.720;6.576;2023-08-24T05:18:49;2.40;;;2.20;;
17614;SDS011;8926;49.720;6.576;2023-08-24T05:21:15;2.40;;;2.20;;
17614;SDS011;8926;49.720;6.576;2023-08-24T05:23:40;2.57;;;2.47;;
17614;SDS011;8926;49.720;6.576;2023-08-24T05:26:06;2.67;;;2.47;;
17614;SDS011;8926;49.720;6.576;2023-08-24T05:28:31;2.10;;;2.00;;
17614;SDS011;8926;49.720;6.576;2023-08-24T05:30:57;3.23;;;2.60;;
17614;SDS011;8926;49.720;6.576;2023-08-24T05:33:23;2.07;;;1.97;;
17614;SDS011;8926;49.720;6.576;2023-08-24T05:35:50;2.50;;;2.20;;
17614;SDS011;8926;49.720;6.576;2023-08-24T05:38:15;1.73;;;1.63;;
17614;SDS011;8926;49.720;6.576;2023-08-24T05:40:46;1.87;;;1.70;;
17614;SDS011;8926;49.720;6.576;2023-08-24T05:43:12;1.90;;;1.80;;
17614;SDS011;8926;49.720;6.576;2023-08-24T05:45:37;1.83;;;1.73;;
17614;SDS011;8926;49.720;6.576;2023-08-24T05:48:05;1.80;;;1.70;;
17614;SDS011;8926;49.720;6.576;2023-08-24T05:50:30;1.90;;;1.63;;
17614;SDS011;8926;49.720;6.576;2023-08-24T05:52:56;1.90;;;1.80;;
17614;SDS011;8926;49.720;6.576;2023-08-24T05:55:21;2.30;;;2.10;;
17614;SDS011;8926;49.720;6.576;2023-08-24T05:57:47;1.83;;;1.73;;
17614;SDS011;8926;49.720;6.576;2023-08-24T06:00:13;1.90;;;1.80;;
17614;SDS011;8926;49.720;6.576;2023-08-24T06:02:39;1.97;;;1.87;;
17614;SDS011;8926;49.720;6.576;2023-08-24T06:05:05;1.60;;;1.50;;
17614;SDS011;8926;49.720;6.576;2023-08-24T06:07:31;2.40;;;2.20;;
17614;SDS011;8926;49.720;6.576;2023-08-24T06:09:57;2.40;;;2.07;;
17614;SDS011;8926;49.720;6.576;2023-08-24T06:12:23;1.80;;;1.70;;
17614;SDS011;8926;49.720;6.576;2023-08-24T06:14:48;2.07;;;1.97;;
17614;SDS011;8926;49.720;6.576;2023-08-24T06:17:13;4.13;;;2.10;;
17614;SDS011;8926;49.720;6.576;2023-08-24T06:19:38;2.20;;;2.10;;
17614;SDS011;8926;49.720;6.576;2023-08-24T06:22:04;3.67;;;2.70;;
17614;SDS011;8926;49.720;6.576;2023-08-24T06:24:29;2.93;;;2.63;;
17614;SDS011;8926;49.720;6.576;2023-08-24T06:26:55;3.07;;;2.87;;
17614;SDS011;8926;49.720;6.576;2023-08-24T06:29:20;2.90;;;2.70;;
17614;SDS011;8926;49.720;6.576;2023-08-24T06:31:45;1.93;;;1.80;;
17614;SDS011;8926;49.720;6.576;2023-08-24T06:34:10;2.10;;;2.00;;
17614;SDS011;8926;49.720;6.576;2023-08-24T06:36:36;1.97;;;1.87;;
17614;SDS011;8926;49.720;6.576;2023-08-24T06:39:02;1.97;;;1.87;;
17614;SDS011;8926;49.720;6.576;2023-08-24T06:43:59;2.10;;;1.90;;
17614;SDS011;8926;49.720;6.576;2023-08-24T06:46:24;2.47;;;2.27;;
17614;SDS011;8926;49.720;6.576;2023-08-24T06:48:50;2.30;;;2.07;;
17614;SDS011;8926;49.720;6.576;2023-08-24T06:51:15;2.27;;;2.13;;
17614;SDS011;8926;49.720;6.576;2023-08-24T06:53:41;2.47;;;2.27;;
17614;SDS011;8926;49.720;6.576;2023-08-24T06:56:07;1.97;;;1.87;;
17614;SDS011;8926;49.720;6.576;2023-08-24T06:58:33;1.80;;;1.70;;
17614;SDS011;8926;49.720;6.576;2023-08-24T07:00:59;2.00;;;1.90;;
17614;SDS011;8926;49.720;6.576;2023-08-24T07:03:24;2.40;;;2.23;;
17614;SDS011;8926;49.720;6.576;2023-08-24T07:05:49;1.90;;;1.67;;
17614;SDS011;8926;49.720;6.576;2023-08-24T07:08:15;1.53;;;1.47;;
17614;SDS011;8926;49.720;6.576;2023-08-24T07:10:41;1.57;;;1.47;;
17614;SDS011;8926;49.720;6.576;2023-08-24T07:13:07;1.80;;;1.70;;
17614;SDS011;8926;49.720;6.576;2023-08-24T07:15:34;1.80;;;1.70;;
17614;SDS011;8926;49.720;6.576;2023-08-24T07:18:00;1.87;;;1.77;;
17614;SDS011;8926;49.720;6.576;2023-08-24T07:20:26;1.90;;;1.80;;
17614;SDS011;8926;49.720;6.576;2023-08-24T07:22:52;1.90;;;1.80;;
17614;SDS011;8926;49.720;6.576;2023-08-24T07:25:18;1.80;;;1.70;;
17614;SDS011;8926;49.720;6.576;2023-08-24T07:27:46;1.70;;;1.60;;
17614;SDS011;8926;49.720;6.576;2023-08-24T07:30:12;1.40;;;1.40;;
17614;SDS011;8926;49.720;6.576;2023-08-24T07:32:37;1.53;;;1.43;;
17614;SDS011;8926;49.720;6.576;2023-08-24T07:35:03;1.63;;;1.60;;
17614;SDS011;8926;49.720;6.576;2023-08-24T07:37:28;1.80;;;1.70;;
17614;SDS011;8926;49.720;6.576;2023-08-24T07:39:54;1.80;;;1.70;;
17614;SDS011;8926;49.720;6.576;2023-08-24T07:42:19;1.80;;;1.70;;
17614;SDS011;8926;49.720;6.576;2023-08-24T07:44:46;1.90;;;1.80;;
17614;SDS011;8926;49.720;6.576;2023-08-24T07:47:11;1.63;;;1.53;;
17614;SDS011;8926;49.720;6.576;2023-08-24T07:49:36;1.67;;;1.57;;
17614;SDS011;8926;49.720;6.576;2023-08-24T07:52:04;1.60;;;1.30;;
17614;SDS011;8926;49.720;6.576;2023-08-24T07:54:30;1.73;;;1.63;;
17614;SDS011;8926;49.720;6.576;2023-08-24T07:56:55;2.20;;;2.10;;
17614;SDS011;8926;49.720;6.576;2023-08-24T07:59:21;1.87;;;1.77;;
17614;SDS011;8926;49.720;6.576;2023-08-24T08:01:46;2.00;;;1.90;;
17614;SDS011;8926;49.720;6.576;2023-08-24T08:04:11;1.70;;;1.60;;
17614;SDS011;8926;49.720;6.576;2023-08-24T08:06:37;2.00;;;1.90;;
17614;SDS011;8926;49.720;6.576;2023-08-24T08:09:02;2.23;;;2.00;;
17614;SDS011;8926;49.720;6.576;2023-08-24T08:11:27;2.20;;;2.10;;
17614;SDS011;8926;49.720;6.576;2023-08-24T08:13:52;2.70;;;2.50;;
17614;SDS011;8926;49.720;6.576;2023-08-24T08:16:18;2.77;;;2.57;;
17614;SDS011;8926;49.720;6.576;2023-08-24T08:18:43;2.67;;;2.47;;
17614;SDS011;8926;49.720;6.576;2023-08-24T08:21:09;2.63;;;2.43;;
17614;SDS011;8926;49.720;6.576;2023-08-24T08:23:36;3.00;;;2.70;;
17614;SDS011;8926;49.720;6.576;2023-08-24T08:26:02;2.50;;;2.30;;
17614;SDS011;8926;49.720;6.576;2023-08-24T08:28:28;2.13;;;2.03;;
17614;SDS011;8926;49.720;6.576;2023-08-24T08:30:53;2.77;;;2.57;;
17614;SDS011;8926;49.720;6.576;2023-08-24T08:33:18;2.60;;;2.40;;
17614;SDS011;8926;49.720;6.576;2023-08-24T08:35:46;4.17;;;2.53;;
17614;SDS011;8926;49.720;6.576;2023-08-24T08:38:12;2.20;;;2.10;;
17614;SDS011;8926;49.720;6.576;2023-08-24T08:40:37;2.27;;;2.13;;
17614;SDS011;8926;49.720;6.576;2023-08-24T08:43:03;2.23;;;2.13;;
17614;SDS011;8926;49.720;6.576;2023-08-24T08:45:28;3.50;;;3.00;;
17614;SDS011;8926;49.720;6.576;2023-08-24T08:47:57;2.57;;;2.40;;
17614;SDS011;8926;49.720;6.576;2023-08-24T08:50:24;3.80;;;2.80;;
17614;SDS011;8926;49.720;6.576;2023-08-24T08:52:49;2.57;;;2.37;;
17614;SDS011;8926;49.720;6.576;2023-08-24T08:55:15;2.53;;;2.37;;
17614;SDS011;8926;49.720;6.576;2023-08-24T08:57:40;2.87;;;2.30;;
17614;SDS011;8926;49.720;6.576;2023-08-24T09:00:08;3.30;;;2.13;;
17614;SDS011;8926;49.720;6.576;2023-08-24T09:02:38;2.40;;;2.30;;
17614;SDS011;8926;49.720;6.576;2023-08-24T09:05:04;2.40;;;2.00;;
17614;SDS011;8926;49.720;6.576;2023-08-24T09:07:29;2.40;;;2.20;;
17614;SDS011;8926;49.720;6.576;2023-08-24T09:09:55;2.90;;;2.23;;
17614;SDS011;8926;49.720;6.576;2023-08-24T09:12:20;2.40;;;2.20;;
17614;SDS011;8926;49.720;6.576;2023-08-24T09:14:45;2.33;;;2.13;;
17614;SDS011;8926;49.720;6.576;2023-08-24T09:17:18;1.87;;;1.77;;
17614;SDS011;8926;49.720;6.576;2023-08-24T09:19:44;2.20;;;2.10;;
17614;SDS011;8926;49.720;6.576;2023-08-24T09:22:10;2.30;;;1.83;;
17614;SDS011;8926;49.720;6.576;2023-08-24T09:24:35;2.27;;;1.80;;
17614;SDS011;8926;49.720;6.576;2023-08-24T09:27:17;2.40;;;2.20;;
17614;SDS011;8926;49.720;6.576;2023-08-24T09:29:47;2.80;;;2.60;;
17614;SDS011;8926;49.720;6.576;2023-08-24T09:32:28;2.57;;;2.40;;
17614;SDS011;8926;49.720;6.576;2023-08-24T09:34:54;3.83;;;2.30;;
17614;SDS011;8926;49.720;6.576;2023-08-24T09:37:20;2.23;;;2.03;;
17614;SDS011;8926;49.720;6.576;2023-08-24T09:39:46;2.23;;;2.03;;
17614;SDS011;8926;49.720;6.576;2023-08-24T09:42:12;2.50;;;2.30;;
17614;SDS011;8926;49.720;6.576;2023-08-24T09:44:38;2.43;;;2.23;;
17614;SDS011;8926;49.720;6.576;2023-08-24T09:47:11;1.93;;;1.83;;
17614;SDS011;8926;49.720;6.576;2023-08-24T09:49:36;1.80;;;1.70;;
17614;SDS011;8926;49.720;6.576;2023-08-24T09:52:01;2.50;;;2.30;;
17614;SDS011;8926;49.720;6.576;2023-08-24T09:54:31;2.43;;;2.27;;
17614;SDS011;8926;49.720;6.576;2023-08-24T09:56:57;1.83;;;1.73;;
17614;SDS011;8926;49.720;6.576;2023-08-24T09:59:25;2.40;;;2.20;;
17614;SDS011;8926;49.720;6.576;2023-08-24T10:01:52;2.10;;;2.00;;
17614;SDS011;8926;49.720;6.576;2023-08-24T10:04:22;1.70;;;1.60;;
17614;SDS011;8926;49.720;6.576;2023-08-24T10:06:58;1.90;;;1.77;;
17614;SDS011;8926;49.720;6.576;2023-08-24T10:09:31;2.03;;;1.83;;
17614;SDS011;8926;49.720;6.576;2023-08-24T10:12:00;1.90;;;1.80;;
17614;SDS011;8926;49.720;6.576;2023-08-24T10:14:36;2.40;;;2.10;;
17614;SDS011;8926;49.720;6.576;2023-08-24T10:17:40;2.07;;;1.97;;
17614;SDS011;8926;49.720;6.576;2023-08-24T10:20:05;1.87;;;1.77;;
17614;SDS011;8926;49.720;6.576;2023-08-24T10:22:35;1.80;;;1.70;;
17614;SDS011;8926;49.720;6.576;2023-08-24T10:25:02;1.90;;;1.80;;
17614;SDS011;8926;49.720;6.576;2023-08-24T10:27:28;2.10;;;2.00;;
17614;SDS011;8926;49.720;6.576;2023-08-24T10:29:54;2.40;;;2.20;;
17614;SDS011;8926;49.720;6.576;2023-08-24T10:32:20;2.03;;;1.90;;
17614;SDS011;8926;49.720;6.576;2023-08-24T10:34:47;1.90;;;1.80;;
17614;SDS011;8926;49.720;6.576;2023-08-24T10:37:12;1.93;;;1.83;;
17614;SDS011;8926;49.720;6.576;2023-08-24T10:39:43;1.70;;;1.60;;
17614;SDS011;8926;49.720;6.576;2023-08-24T10:42:12;1.70;;;1.60;;
17614;SDS011;8926;49.720;6.576;2023-08-24T10:44:39;1.77;;;1.67;;
17614;SDS011;8926;49.720;6.576;2023-08-24T10:47:12;1.70;;;1.60;;
17614;SDS011;8926;49.720;6.576;2023-08-24T10:54:48;1.80;;;1.70;;
17614;SDS011;8926;49.720;6.576;2023-08-24T10:57:19;1.97;;;1.87;;
17614;SDS011;8926;49.720;6.576;2023-08-24T11:00:04;1.70;;;1.60;;
17614;SDS011;8926;49.720;6.576;2023-08-24T11:02:36;1.60;;;1.50;;
17614;SDS011;8926;49.720;6.576;2023-08-24T11:05:06;1.60;;;1.50;;
17614;SDS011;8926;49.720;6.576;2023-08-24T11:13:11;1.60;;;1.50;;
17614;SDS011;8926;49.720;6.576;2023-08-24T11:18:14;1.50;;;1.50;;
17614;SDS011;8926;49.720;6.576;2023-08-24T11:20:49;1.60;;;1.47;;
17614;SDS011;8926;49.720;6.576;2023-08-24T11:23:16;1.73;;;1.63;;
17614;SDS011;8926;49.720;6.576;2023-08-24T11:25:42;1.77;;;1.67;;
17614;SDS011;8926;49.720;6.576;2023-08-24T11:28:09;1.80;;;1.70;;
17614;SDS011;8926;49.720;6.576;2023-08-24T11:30:35;1.70;;;1.60;;
17614;SDS011;8926;49.720;6.576;2023-08-24T11:33:01;1.63;;;1.53;;
17614;SDS011;8926;49.720;6.576;2023-08-24T11:35:27;1.80;;;1.70;;
17614;SDS011;8926;49.720;6.576;2023-08-24T11:37:53;1.53;;;1.43;;
17614;SDS011;8926;49.720;6.576;2023-08-24T11:40:20;1.70;;;1.60;;
17614;SDS011;8926;49.720;6.576;2023-08-24T11:42:51;1.53;;;1.50;;
17614;SDS011;8926;49.720;6.576;2023-08-24T11:45:18;1.60;;;1.53;;
17614;SDS011;8926;49.720;6.576;2023-08-24T11:47:43;1.90;;;1.80;;
17614;SDS011;8926;49.720;6.576;2023-08-24T11:50:09;1.50;;;1.40;;
17614;SDS011;8926;49.720;6.576;2023-08-24T11:52:41;1.93;;;1.83;;
17614;SDS011;8926;49.720;6.576;2023-08-24T11:55:07;2.73;;;2.53;;
17614;SDS011;8926;49.720;6.576;2023-08-24T11:57:34;3.10;;;2.80;;
17614;SDS011;8926;49.720;6.576;2023-08-24T12:00:00;2.70;;;2.50;;
17614;SDS011;8926;49.720;6.576;2023-08-24T12:02:27;2.50;;;2.30;;
17614;SDS011;8926;49.720;6.576;2023-08-24T12:04:52;3.00;;;2.63;;
17614;SDS011;8926;49.720;6.576;2023-08-24T12:07:20;2.87;;;2.67;;
17614;SDS011;8926;49.720;6.576;2023-08-24T12:09:45;2.20;;;2.10;;
17614;SDS011;8926;49.720;6.576;2023-08-24T12:12:14;2.73;;;2.53;;
17614;SDS011;8926;49.720;6.576;2023-08-24T12:14:41;2.87;;;2.67;;
17614;SDS011;8926;49.720;6.576;2023-08-24T12:17:07;2.37;;;2.17;;
17614;SDS011;8926;49.720;6.576;2023-08-24T12:19:32;2.87;;;2.73;;
17614;SDS011;8926;49.720;6.576;2023-08-24T12:21:58;2.67;;;2.47;;
17614;SDS011;8926;49.720;6.576;2023-08-24T12:24:23;2.00;;;1.90;;
17614;SDS011;8926;49.720;6.576;2023-08-24T12:26:54;1.93;;;1.83;;
17614;SDS011;8926;49.720;6.576;2023-08-24T12:29:21;2.33;;;2.20;;
17614;SDS011;8926;49.720;6.576;2023-08-24T12:31:47;5.50;;;3.03;;
17614;SDS011;8926;49.720;6.576;2023-08-24T12:34:14;2.90;;;2.30;;
17614;SDS011;8926;49.720;6.576;2023-08-24T12:36:41;2.67;;;2.47;;
17614;SDS011;8926;49.720;6.576;2023-08-24T12:39:10;4.90;;;2.20;;
17614;SDS011;8926;49.720;6.576;2023-08-24T12:41:37;2.10;;;2.00;;
17614;SDS011;8926;49.720;6.576;2023-08-24T12:44:03;1.70;;;1.60;;
17614;SDS011;8926;49.720;6.576;2023-08-24T12:46:32;2.20;;;2.10;;
17614;SDS011;8926;49.720;6.576;2023-08-24T12:49:01;2.40;;;2.30;;
17614;SDS011;8926;49.720;6.576;2023-08-24T12:51:27;1.90;;;1.80;;
17614;SDS011;8926;49.720;6.576;2023-08-24T12:53:52;1.93;;;1.83;;
17614;SDS011;8926;49.720;6.576;2023-08-24T12:56:17;1.70;;;1.60;;
17614;SDS011;8926;49.720;6.576;2023-08-24T12:58:43;1.27;;;1.23;;
17614;SDS011;8926;49.720;6.576;2023-08-24T13:01:10;1.67;;;1.57;;
17614;SDS011;8926;49.720;6.576;2023-08-24T13:03:37;1.77;;;1.67;;
17614;SDS011;8926;49.720;6.576;2023-08-24T13:06:04;1.70;;;1.60;;
17614;SDS011;8926;49.720;6.576;2023-08-24T13:08:29;1.50;;;1.40;;
17614;SDS011;8926;49.720;6.576;2023-08-24T13:10:55;1.30;;;1.30;;
17614;SDS011;8926;49.720;6.576;2023-08-24T13:13:20;1.57;;;1.47;;
17614;SDS011;8926;49.720;6.576;2023-08-24T13:15:49;1.30;;;1.30;;
17614;SDS011;8926;49.720;6.576;2023-08-24T13:18:15;1.00;;;1.00;;
17614;SDS011;8926;49.720;6.576;2023-08-24T13:20:41;1.10;;;1.10;;
17614;SDS011;8926;49.720;6.576;2023-08-24T13:23:07;1.33;;;1.23;;
17614;SDS011;8926;49.720;6.576;2023-08-24T13:25:32;1.27;;;1.27;;
17614;SDS011;8926;49.720;6.576;2023-08-24T13:27:57;1.13;;;1.13;;
17614;SDS011;8926;49.720;6.576;2023-08-24T13:30:23;1.10;;;1.10;;
17614;SDS011;8926;49.720;6.576;2023-08-24T13:32:48;1.40;;;1.30;;
17614;SDS011;8926;49.720;6.576;2023-08-24T13:35:13;1.30;;;0.97;;
17614;SDS011;8926;49.720;6.576;2023-08-24T13:37:39;1.20;;;1.10;;
17614;SDS011;8926;49.720;6.576;2023-08-24T13:40:04;1.50;;;1.40;;
17614;SDS011;8926;49.720;6.576;2023-08-24T13:42:30;1.30;;;1.30;;
17614;SDS011;8926;49.720;6.576;2023-08-24T13:44:55;0.93;;;0.93;;
17614;SDS011;8926;49.720;6.576;2023-08-24T13:47:21;1.00;;;1.00;;
17614;SDS011;8926;49.720;6.576;2023-08-24T13:49:49;1.60;;;1.50;;
17614;SDS011;8926;49.720;6.576;2023-08-24T13:52:15;1.60;;;1.50;;
17614;SDS011;8926;49.720;6.576;2023-08-24T13:54:41;1.40;;;1.40;;
17614;SDS011;8926;49.720;6.576;2023-08-24T13:57:06;1.50;;;1.40;;
17614;SDS011;8926;49.720;6.576;2023-08-24T13:59:32;1.30;;;1.20;;
17614;SDS011;8926;49.720;6.576;2023-08-24T14:01:57;1.37;;;1.27;;
17614;SDS011;8926;49.720;6.576;2023-08-24T14:04:22;1.53;;;1.43;;
17614;SDS011;8926;49.720;6.576;2023-08-24T14:06:48;1.80;;;1.70;;
17614;SDS011;8926;49.720;6.576;2023-08-24T14:09:13;2.07;;;1.73;;
17614;SDS011;8926;49.720;6.576;2023-08-24T14:11:39;1.57;;;1.50;;
17614;SDS011;8926;49.720;6.576;2023-08-24T14:14:04;1.90;;;1.80;;
17614;SDS011;8926;49.720;6.576;2023-08-24T14:16:29;2.03;;;1.83;;
17614;SDS011;8926;49.720;6.576;2023-08-24T14:18:54;1.83;;;1.73;;
17614;SDS011;8926;49.720;6.576;2023-08-24T14:21:20;1.60;;;1.50;;
17614;SDS011;8926;49.720;6.576;2023-08-24T14:23:45;2.10;;;1.90;;
17614;SDS011;8926;49.720;6.576;2023-08-24T14:26:11;2.50;;;2.20;;
17614;SDS011;8926;49.720;6.576;2023-08-24T14:31:32;1.60;;;1.50;;
17614;SDS011;8926;49.720;6.576;2023-08-24T14:33:58;1.90;;;1.70;;
17614;SDS011;8926;49.720;6.576;2023-08-24T14:36:23;1.70;;;1.60;;
17614;SDS011;8926;49.720;6.576;2023-08-24T14:38:49;3.43;;;2.40;;
17614;SDS011;8926;49.720;6.576;2023-08-24T14:41:16;2.33;;;2.13;;
17614;SDS011;8926;49.720;6.576;2023-08-24T14:43:42;2.53;;;2.10;;
17614;SDS011;8926;49.720;6.576;2023-08-24T14:46:07;1.87;;;1.77;;
17614;SDS011;8926;49.720;6.576;2023-08-24T14:48:33;3.60;;;2.27;;
17614;SDS011;8926;49.720;6.576;2023-08-24T14:50:59;1.87;;;1.77;;
17614;SDS011;8926;49.720;6.576;2023-08-24T14:53:25;2.23;;;2.03;;
17614;SDS011;8926;49.720;6.576;2023-08-24T14:55:54;2.53;;;1.60;;
17614;SDS011;8926;49.720;6.576;2023-08-24T14:58:22;1.93;;;1.70;;
17614;SDS011;8926;49.720;6.576;2023-08-24T15:00:49;4.17;;;2.50;;
17614;SDS011;8926;49.720;6.576;2023-08-24T15:03:14;3.03;;;2.10;;
17614;SDS011;8926;49.720;6.576;2023-08-24T15:05:42;2.00;;;1.70;;
17614;SDS011;8926;49.720;6.576;2023-08-24T15:08:08;2.27;;;1.37;;
17614;SDS011;8926;49.720;6.576;2023-08-24T15:10:34;1.40;;;1.30;;
17614;SDS011;8926;49.720;6.576;2023-08-24T15:13:00;1.00;;;1.00;;
17614;SDS011;8926;49.720;6.576;2023-08-24T15:15:25;1.20;;;1.20;;
17614;SDS011;8926;49.720;6.576;2023-08-24T15:17:51;1.90;;;1.40;;
17614;SDS011;8926;49.720;6.576;2023-08-24T15:20:16;1.20;;;1.10;;